Terminal Aerodrome Forecast
Issued by NWS

Home | Current Version | Previous Version | Text Only | Print | Product List | Glossary On
Versions: 1 2 3 4 5 6 7 8 9 10 11 12 13 14 15 16 17 18 19 20 21 22 23 24 25 26 27 28
000
FTUS43 KGRR 061414 AAA
TAFAZO
TAF AMD
KAZO 061414Z 0614/0712 14005KT 2SM BR OVC003
     FM061500 15005KT 3SM BR OVC005
     FM061600 15005KT 6SM BR BKN014
     FM061700 15005KT P6SM BKN080
     FM062000 17004KT P6SM BKN250=

USA.gov is the U.S. government's official web portal to all federal, state and local government web resources and services.